Time;durP1;ratioP1;P1;durP2;ratioP2;P2;SDS_P1;SDS_P2;PMS_P1;PMS_P2;Temp;Humidity;BMP_temperature;BMP_pressure;BME280_temperature;BME280_humidity;BME280_pressure;Samples;Min_cycle;Max_cycle;Signal;HPM_P1;HPM_P2
2022/11/28 00:00:29;;;;;;;5.73;3.50;;;8.30;99.90;;;;;;5034532;28;20203;-55
2022/11/28 00:02:56;;;;;;;8.47;3.20;;;8.30;99.90;;;;;;5031099;28;20276;-55
2022/11/28 00:05:23;;;;;;;6.07;3.77;;;8.30;99.90;;;;;;5047367;28;20229;-55
2022/11/28 00:07:50;;;;;;;8.60;3.63;;;8.30;99.90;;;;;;5032084;28;20211;-55
2022/11/28 00:10:17;;;;;;;7.50;4.30;;;8.30;99.90;;;;;;5030771;28;20258;-56
2022/11/28 00:12:44;;;;;;;5.53;3.83;;;8.30;99.90;;;;;;5033957;28;20288;-55
2022/11/28 00:15:11;;;;;;;4.80;3.83;;;8.30;99.90;;;;;;5032155;28;20207;-56
2022/11/28 00:17:38;;;;;;;5.57;4.00;;;8.30;99.90;;;;;;5032069;28;20267;-56
2022/11/28 00:20:05;;;;;;;4.53;3.17;;;8.30;99.90;;;;;;5031789;28;20276;-59
2022/11/28 00:22:32;;;;;;;5.77;4.00;;;8.30;99.90;;;;;;5029439;28;20201;-58
2022/11/28 00:24:59;;;;;;;7.10;3.70;;;8.30;99.90;;;;;;5034276;28;20623;-57
2022/11/28 00:27:26;;;;;;;6.03;3.97;;;8.30;99.90;;;;;;5021722;28;20204;-56
2022/11/28 00:29:54;;;;;;;8.53;3.40;;;8.30;99.90;;;;;;5031587;28;20707;-55
2022/11/28 00:32:20;;;;;;;6.67;4.37;;;8.30;99.90;;;;;;5030933;28;20293;-56
2022/11/28 00:34:47;;;;;;;7.13;4.07;;;8.30;99.90;;;;;;5044906;28;20565;-56
2022/11/28 00:37:14;;;;;;;5.70;3.60;;;8.30;99.90;;;;;;5033917;28;20215;-56
2022/11/28 00:39:41;;;;;;;5.33;4.43;;;8.30;99.90;;;;;;5032583;28;20619;-56
2022/11/28 00:42:07;;;;;;;5.20;3.60;;;8.30;99.90;;;;;;5030813;28;20597;-55
2022/11/28 00:44:34;;;;;;;5.50;3.87;;;8.30;99.90;;;;;;5029988;28;20215;-56
2022/11/28 00:47:01;;;;;;;8.20;3.80;;;8.30;99.90;;;;;;5031852;28;20237;-56
2022/11/28 00:49:28;;;;;;;4.87;3.57;;;8.40;99.90;;;;;;5026561;28;20230;-56
2022/11/28 00:51:54;;;;;;;7.03;3.90;;;8.30;99.90;;;;;;5032135;28;20310;-55
2022/11/28 00:54:21;;;;;;;4.87;3.80;;;8.40;99.90;;;;;;5031646;28;20248;-56
2022/11/28 00:56:48;;;;;;;5.57;3.40;;;8.40;99.90;;;;;;5023999;28;20223;-56
2022/11/28 00:59:15;;;;;;;6.43;3.90;;;8.40;99.90;;;;;;5029603;28;20225;-56
2022/11/28 01:01:42;;;;;;;4.33;3.47;;;8.40;99.90;;;;;;5033325;28;20251;-56
2022/11/28 01:04:12;;;;;;;4.43;3.50;;;8.30;99.90;;;;;;5031533;28;20877;-55
2022/11/28 01:06:42;;;;;;;5.10;3.30;;;8.30;99.90;;;;;;5014169;28;20258;-56
2022/11/28 01:09:12;;;;;;;5.97;3.43;;;8.30;99.90;;;;;;5028140;28;20213;-56
2022/11/28 01:11:40;;;;;;;5.83;3.40;;;8.30;99.90;;;;;;5033234;28;20226;-55
2022/11/28 01:14:09;;;;;;;7.17;4.10;;;8.30;99.90;;;;;;5031592;28;20657;-55
2022/11/28 01:16:36;;;;;;;5.33;3.60;;;8.30;99.90;;;;;;5030215;28;20232;-56
2022/11/28 01:19:04;;;;;;;6.37;3.40;;;8.40;99.90;;;;;;5043026;28;20231;-56
2022/11/28 01:21:31;;;;;;;3.93;3.07;;;8.40;99.90;;;;;;5033549;28;20211;-56
2022/11/28 01:23:58;;;;;;;7.00;3.47;;;8.40;99.90;;;;;;5033173;28;20225;-57
2022/11/28 01:26:28;;;;;;;6.33;3.70;;;8.40;99.90;;;;;;5033788;28;20209;-56
2022/11/28 01:28:55;;;;;;;6.17;3.70;;;8.50;99.90;;;;;;5027772;28;20573;-56
2022/11/28 01:31:25;;;;;;;5.77;3.13;;;8.50;99.90;;;;;;5031075;28;20214;-56
2022/11/28 01:33:52;;;;;;;5.07;3.40;;;8.50;99.90;;;;;;5038304;28;20268;-56
2022/11/28 01:36:21;;;;;;;5.87;3.47;;;8.50;99.90;;;;;;5038045;28;20747;-59
2022/11/28 01:38:48;;;;;;;3.60;2.63;;;8.50;99.90;;;;;;5037969;28;20201;-56
2022/11/28 01:41:16;;;;;;;5.20;3.43;;;8.50;99.90;;;;;;5037613;28;20198;-56
2022/11/28 01:44:04;;;;;;;5.53;3.27;;;8.60;99.90;;;;;;5038330;28;20197;-56
2022/11/28 01:46:31;;;;;;;5.63;3.10;;;8.60;99.90;;;;;;5038642;28;20659;-56
2022/11/28 01:49:07;;;;;;;3.63;2.90;;;8.60;99.90;;;;;;5037026;28;20246;-56
2022/11/28 01:51:35;;;;;;;4.80;3.13;;;8.70;99.90;;;;;;5038900;28;20204;-56
2022/11/28 01:54:02;;;;;;;4.17;3.00;;;8.60;99.90;;;;;;5038257;28;20250;-60
2022/11/28 01:56:46;;;;;;;4.23;3.20;;;8.60;99.90;;;;;;5038350;28;20221;-56
2022/11/28 01:59:15;;;;;;;4.93;3.27;;;8.60;99.90;;;;;;5035515;28;20404;-56
2022/11/28 02:01:43;;;;;;;5.23;2.93;;;8.50;99.90;;;;;;5036807;28;20206;-56
2022/11/28 02:04:12;;;;;;;3.13;2.50;;;8.50;99.90;;;;;;5032520;28;20683;-56
2022/11/28 02:06:41;;;;;;;3.63;2.60;;;8.50;99.90;;;;;;5035065;28;20410;-56
2022/11/28 02:09:13;;;;;;;5.67;2.67;;;8.50;99.90;;;;;;5036265;28;20207;-56
2022/11/28 02:12:01;;;;;;;2.73;2.13;;;8.40;99.90;;;;;;5036516;28;20314;-56
2022/11/28 02:15:05;;;;;;;5.07;2.30;;;8.40;99.90;;;;;;5033745;28;20230;-56
2022/11/28 02:18:02;;;;;;;3.33;2.50;;;8.30;99.90;;;;;;5034674;28;20236;-55
2022/11/28 02:20:48;;;;;;;3.10;2.50;;;8.30;99.90;;;;;;5032772;28;20201;-56
2022/11/28 02:23:27;;;;;;;3.90;2.87;;;8.20;99.90;;;;;;5035294;28;20202;-56
2022/11/28 02:26:18;;;;;;;4.30;2.87;;;8.20;99.90;;;;;;5035847;28;20206;-56
2022/11/28 02:28:58;;;;;;;5.13;2.97;;;8.20;99.90;;;;;;5035529;28;20200;-56
2022/11/28 02:31:43;;;;;;;6.30;2.70;;;8.10;99.90;;;;;;5038693;28;20337;-56
2022/11/28 02:34:26;;;;;;;5.00;3.03;;;8.10;99.90;;;;;;5038792;28;20202;-56
2022/11/28 02:37:06;;;;;;;4.87;2.67;;;8.10;99.90;;;;;;5039091;28;20299;-56
2022/11/28 02:39:59;;;;;;;7.97;3.23;;;8.10;99.90;;;;;;5038708;28;20237;-56
2022/11/28 02:42:36;;;;;;;5.60;2.73;;;8.00;99.90;;;;;;5038924;28;20205;-56
2022/11/28 02:45:12;;;;;;;5.60;3.07;;;8.00;99.90;;;;;;5039035;28;20204;-56
2022/11/28 02:47:45;;;;;;;5.23;3.07;;;8.00;99.90;;;;;;5039064;28;20287;-56
2022/11/28 02:50:23;;;;;;;3.33;2.80;;;8.00;99.90;;;;;;5039162;28;20210;-55
2022/11/28 02:53:03;;;;;;;5.47;2.93;;;8.00;99.90;;;;;;5037631;28;20564;-57
2022/11/28 02:55:31;;;;;;;3.73;2.53;;;8.00;99.90;;;;;;5036568;28;20313;-56
2022/11/28 02:57:58;;;;;;;6.03;3.47;;;8.00;99.90;;;;;;5038158;28;20306;-56
2022/11/28 03:00:31;;;;;;;4.43;3.20;;;8.00;99.90;;;;;;5038157;28;20197;-56
2022/11/28 03:03:28;;;;;;;3.70;2.83;;;8.00;99.90;;;;;;5038157;28;20210;-57
2022/11/28 03:06:14;;;;;;;3.90;2.83;;;8.00;99.90;;;;;;5033124;28;20229;-56
2022/11/28 03:08:53;;;;;;;3.47;2.27;;;8.00;99.90;;;;;;5033318;28;20200;-56
2022/11/28 03:11:20;;;;;;;4.00;3.07;;;8.00;99.90;;;;;;5039258;28;20259;-56
2022/11/28 03:13:53;;;;;;;4.07;3.27;;;8.00;99.90;;;;;;5055668;28;20735;-56
2022/11/28 03:16:27;;;;;;;5.03;3.17;;;8.00;99.90;;;;;;5037876;28;20630;-56
2022/11/28 03:18:58;;;;;;;7.03;3.10;;;8.00;99.90;;;;;;5037371;28;20233;-56
2022/11/28 03:21:40;;;;;;;3.50;2.70;;;8.00;99.90;;;;;;5039987;28;20629;-56
2022/11/28 03:24:18;;;;;;;6.10;2.70;;;8.00;99.90;;;;;;5038688;28;20560;-56
2022/11/28 03:26:56;;;;;;;4.33;2.90;;;8.00;99.90;;;;;;5040170;28;20237;-55
2022/11/28 03:29:47;;;;;;;5.77;2.77;;;7.90;99.90;;;;;;5039034;28;20201;-56
2022/11/28 03:32:20;;;;;;;4.43;3.30;;;8.00;99.90;;;;;;5038381;28;20288;-56
2022/11/28 03:34:52;;;;;;;4.87;2.63;;;8.00;99.90;;;;;;5037550;28;20231;-57
2022/11/28 03:37:43;;;;;;;5.73;3.83;;;8.00;99.90;;;;;;5040988;28;20217;-56
2022/11/28 03:40:14;;;;;;;3.83;2.40;;;8.00;99.90;;;;;;5029195;28;20947;-56
2022/11/28 03:42:45;;;;;;;4.77;3.07;;;8.00;99.90;;;;;;5038588;28;20215;-56
2022/11/28 03:45:21;;;;;;;5.63;3.30;;;7.90;99.90;;;;;;5035571;28;20200;-56
2022/11/28 03:47:59;;;;;;;6.23;3.03;;;7.90;99.90;;;;;;5036015;28;20235;-56
2022/11/28 03:50:48;;;;;;;4.83;2.47;;;7.90;99.90;;;;;;5032643;28;20833;-56
2022/11/28 03:53:29;;;;;;;4.27;3.20;;;7.90;99.90;;;;;;5036293;28;20220;-56
2022/11/28 03:56:24;;;;;;;3.00;2.67;;;8.00;99.90;;;;;;5018276;28;20281;-56
2022/11/28 03:58:55;;;;;;;3.70;2.60;;;8.00;99.90;;;;;;5022303;28;20239;-55
2022/11/28 04:01:35;;;;;;;4.10;3.17;;;8.00;99.90;;;;;;5035710;28;20309;-56
2022/11/28 04:04:28;;;;;;;4.60;3.20;;;7.90;99.90;;;;;;5036261;28;20621;-56
2022/11/28 04:07:24;;;;;;;5.67;2.73;;;7.90;99.90;;;;;;5027480;28;20208;-56
2022/11/28 04:09:54;;;;;;;5.27;2.90;;;7.90;99.90;;;;;;5028803;28;20295;-56
2022/11/28 04:12:39;;;;;;;6.23;3.03;;;8.00;99.90;;;;;;5037858;28;20205;-56
2022/11/28 04:15:13;;;;;;;4.40;2.67;;;7.90;99.90;;;;;;5037211;28;20203;-55
2022/11/28 04:17:56;;;;;;;4.47;2.97;;;7.90;99.90;;;;;;5039923;28;20237;-56
2022/11/28 04:20:31;;;;;;;5.03;3.23;;;7.90;99.90;;;;;;5057529;28;20246;-56
2022/11/28 04:23:07;;;;;;;4.80;3.40;;;7.90;99.90;;;;;;5057875;28;20198;-56
2022/11/28 04:25:38;;;;;;;3.10;2.50;;;7.90;99.90;;;;;;5054849;28;20286;-56
2022/11/28 04:28:10;;;;;;;4.70;3.77;;;7.80;99.90;;;;;;5052047;28;20195;-56
2022/11/28 04:30:40;;;;;;;4.97;3.73;;;7.90;99.90;;;;;;5054656;28;21084;-56
2022/11/28 04:33:10;;;;;;;5.77;3.57;;;7.90;99.90;;;;;;5056847;28;20279;-56
2022/11/28 04:35:42;;;;;;;4.67;3.27;;;7.90;99.90;;;;;;5058350;28;20666;-56
2022/11/28 04:38:11;;;;;;;6.60;3.50;;;7.90;99.90;;;;;;5059244;28;20224;-56
2022/11/28 04:40:59;;;;;;;4.33;3.20;;;7.80;99.90;;;;;;5059366;28;20620;-56
2022/11/28 04:43:33;;;;;;;4.20;3.10;;;7.80;99.90;;;;;;5058857;28;20196;-55
2022/11/28 04:46:17;;;;;;;5.23;3.30;;;7.80;99.90;;;;;;5058977;28;20206;-56
2022/11/28 04:48:44;;;;;;;5.33;3.60;;;7.90;99.90;;;;;;5057487;28;20361;-56
2022/11/28 04:51:26;;;;;;;4.33;3.20;;;7.90;99.90;;;;;;5058133;28;20214;-57
2022/11/28 04:54:21;;;;;;;4.93;3.47;;;7.90;99.90;;;;;;5054455;28;20287;-56
2022/11/28 04:57:08;;;;;;;4.93;3.40;;;7.90;99.90;;;;;;5059221;28;20232;-56
2022/11/28 04:59:36;;;;;;;3.90;3.37;;;7.90;99.90;;;;;;5056864;28;20652;-56
2022/11/28 05:02:04;;;;;;;3.53;3.17;;;7.90;99.90;;;;;;5061246;28;20200;-57
2022/11/28 05:04:34;;;;;;;5.33;3.40;;;7.80;99.90;;;;;;5057875;28;20197;-56
2022/11/28 05:07:06;;;;;;;7.67;3.87;;;7.90;99.90;;;;;;5060717;28;20206;-56
2022/11/28 05:09:33;;;;;;;5.87;3.47;;;7.90;99.90;;;;;;5060145;28;20711;-56
2022/11/28 05:12:00;;;;;;;4.63;3.47;;;7.90;99.90;;;;;;5059583;28;20241;-56
2022/11/28 05:14:27;;;;;;;4.37;3.20;;;7.90;99.90;;;;;;5059562;28;20204;-56
2022/11/28 05:16:54;;;;;;;4.40;3.33;;;7.90;99.90;;;;;;5043289;28;20291;-56
2022/11/28 05:19:21;;;;;;;7.00;3.80;;;7.90;99.90;;;;;;5040269;28;20268;-57
2022/11/28 05:21:48;;;;;;;4.53;3.70;;;7.90;99.90;;;;;;5038592;28;20199;-56
2022/11/28 05:24:15;;;;;;;4.60;3.20;;;7.90;99.90;;;;;;5039757;28;20205;-56
2022/11/28 05:26:42;;;;;;;5.43;3.67;;;7.90;99.90;;;;;;5040856;28;20291;-56
2022/11/28 05:29:09;;;;;;;5.73;3.57;;;7.90;99.90;;;;;;5037162;28;20692;-57
2022/11/28 05:31:37;;;;;;;5.07;3.70;;;7.90;99.90;;;;;;5039064;28;20888;-55
2022/11/28 05:34:04;;;;;;;4.50;3.50;;;7.90;99.90;;;;;;5036704;28;20193;-56
2022/11/28 05:36:30;;;;;;;5.50;3.60;;;7.90;99.90;;;;;;5037750;28;20207;-56
2022/11/28 05:38:57;;;;;;;4.80;3.90;;;7.90;99.90;;;;;;5035494;28;20228;-56
2022/11/28 05:41:27;;;;;;;3.43;3.10;;;7.90;99.90;;;;;;5037935;28;20203;-56
2022/11/28 05:43:55;;;;;;;5.07;3.43;;;7.90;99.90;;;;;;5038438;28;20650;-55
2022/11/28 05:46:23;;;;;;;6.20;3.27;;;7.90;99.90;;;;;;5038520;28;20223;-56
2022/11/28 05:48:50;;;;;;;5.37;3.30;;;8.00;99.90;;;;;;5037734;28;20290;-55
2022/11/28 05:51:18;;;;;;;5.50;3.37;;;8.00;99.90;;;;;;5036069;28;20240;-55
2022/11/28 05:53:45;;;;;;;5.03;3.20;;;8.00;99.90;;;;;;5038540;28;20241;-56
2022/11/28 05:56:15;;;;;;;4.67;3.37;;;8.00;99.90;;;;;;5038735;28;20208;-56
2022/11/28 05:58:43;;;;;;;4.40;3.17;;;8.00;99.90;;;;;;5038427;28;20303;-55
2022/11/28 06:01:16;;;;;;;4.23;3.23;;;8.00;99.90;;;;;;5036998;28;20206;-55
2022/11/28 06:03:44;;;;;;;4.50;3.20;;;8.00;99.90;;;;;;5036893;28;20201;-55
2022/11/28 06:06:16;;;;;;;4.67;3.00;;;8.00;99.90;;;;;;5022916;28;20207;-55
2022/11/28 06:08:45;;;;;;;4.00;3.10;;;8.00;99.90;;;;;;5041973;28;20203;-56
2022/11/28 06:11:13;;;;;;;4.57;3.67;;;8.00;99.90;;;;;;5041189;28;20232;-55
2022/11/28 06:13:42;;;;;;;4.07;3.37;;;8.10;99.90;;;;;;5042013;28;20203;-55
2022/11/28 06:16:12;;;;;;;4.63;3.13;;;8.00;99.90;;;;;;5023271;28;20693;-56
2022/11/28 06:18:39;;;;;;;4.83;3.40;;;8.10;99.90;;;;;;5041040;28;20252;-55
2022/11/28 06:21:09;;;;;;;3.50;3.20;;;8.10;99.90;;;;;;5041137;28;20255;-56
2022/11/28 06:23:36;;;;;;;4.43;2.87;;;8.00;99.90;;;;;;5039300;28;20278;-55
2022/11/28 06:26:11;;;;;;;5.50;3.40;;;8.10;99.90;;;;;;5040016;28;20208;-56
2022/11/28 06:28:39;;;;;;;4.40;3.33;;;8.00;99.90;;;;;;5038955;28;20358;-56
2022/11/28 06:31:20;;;;;;;3.97;3.40;;;8.00;99.90;;;;;;5037874;28;20666;-55
2022/11/28 06:33:48;;;;;;;5.73;3.33;;;8.10;99.90;;;;;;5038795;28;20193;-57
2022/11/28 06:36:16;;;;;;;4.13;3.43;;;8.10;99.90;;;;;;5029918;28;20798;-56
2022/11/28 06:38:43;;;;;;;4.70;3.23;;;8.10;99.90;;;;;;5032665;28;20589;-56
2022/11/28 06:41:14;;;;;;;4.17;3.20;;;8.10;99.90;;;;;;5033481;28;20204;-55
2022/11/28 06:43:41;;;;;;;4.57;3.67;;;8.10;99.90;;;;;;5032872;28;20291;-56
2022/11/28 06:46:13;;;;;;;6.77;4.00;;;8.10;99.90;;;;;;5030273;28;20206;-59
2022/11/28 06:48:42;;;;;;;5.00;3.80;;;8.10;99.90;;;;;;5033796;28;20203;-56
2022/11/28 06:51:10;;;;;;;3.83;3.23;;;8.10;99.90;;;;;;4668671;28;9999739;-55
2022/11/28 06:53:37;;;;;;;5.37;4.37;;;8.10;99.90;;;;;;5026086;28;20200;-62
2022/11/28 06:56:15;;;;;;;5.13;3.73;;;8.10;99.90;;;;;;5030497;28;20242;-55
2022/11/28 06:58:43;;;;;;;5.70;4.13;;;8.10;99.90;;;;;;5030364;28;20218;-55
2022/11/28 07:01:16;;;;;;;6.23;4.37;;;8.20;99.90;;;;;;5026542;28;20212;-60
2022/11/28 07:03:44;;;;;;;6.80;4.90;;;8.10;99.90;;;;;;5030878;28;20293;-56
2022/11/28 07:06:12;;;;;;;8.23;4.40;;;8.20;99.90;;;;;;5027095;28;20567;-56
2022/11/28 07:08:40;;;;;;;5.30;4.67;;;8.10;99.90;;;;;;5022367;28;20210;-56
2022/11/28 07:11:12;;;;;;;6.40;4.50;;;8.10;99.90;;;;;;5029025;28;20274;-55
2022/11/28 07:13:40;;;;;;;7.43;4.70;;;8.10;99.90;;;;;;5031235;28;20311;-56
2022/11/28 07:16:11;;;;;;;7.13;4.60;;;8.10;99.90;;;;;;5020491;28;20571;-56
2022/11/28 07:18:38;;;;;;;7.07;4.50;;;8.20;99.90;;;;;;5012445;28;20263;-56
2022/11/28 07:21:05;;;;;;;5.83;4.70;;;8.30;99.90;;;;;;5041085;28;20307;-56
2022/11/28 07:23:32;;;;;;;5.57;4.70;;;8.30;99.90;;;;;;5027781;28;20234;-56
2022/11/28 07:26:01;;;;;;;5.57;4.47;;;8.30;99.90;;;;;;5038780;28;21140;-57
2022/11/28 07:28:28;;;;;;;6.23;4.53;;;8.30;99.90;;;;;;5038782;28;20205;-56
2022/11/28 07:31:19;;;;;;;6.77;4.70;;;8.20;99.90;;;;;;5036361;28;20288;-56
2022/11/28 07:33:48;;;;;;;6.50;4.73;;;8.20;99.90;;;;;;5017711;28;20302;-56
2022/11/28 07:36:17;;;;;;;6.93;5.20;;;8.30;99.90;;;;;;5029943;28;20227;-56
2022/11/28 07:38:48;;;;;;;5.93;4.87;;;8.30;99.90;;;;;;5026285;28;20228;-55
2022/11/28 07:41:16;;;;;;;9.30;5.07;;;8.30;99.90;;;;;;5026801;28;20293;-56
2022/11/28 07:43:45;;;;;;;9.60;5.73;;;8.30;99.90;;;;;;5028544;28;20276;-56
2022/11/28 07:46:14;;;;;;;9.03;5.50;;;8.30;99.90;;;;;;5029985;28;20905;-58
2022/11/28 07:48:42;;;;;;;8.10;5.67;;;8.40;99.90;;;;;;5034361;28;20287;-56
2022/11/28 07:51:12;;;;;;;7.40;5.63;;;8.30;99.90;;;;;;5032535;28;20234;-55
2022/11/28 07:53:39;;;;;;;8.67;6.10;;;8.30;99.90;;;;;;5033961;28;20212;-56
2022/11/28 07:56:13;;;;;;;10.50;6.83;;;8.30;99.90;;;;;;5030260;28;21333;-56
2022/11/28 07:58:43;;;;;;;9.47;6.67;;;8.30;99.90;;;;;;5027774;28;20237;-56
2022/11/28 08:01:12;;;;;;;11.60;7.37;;;8.30;99.90;;;;;;5031351;28;20310;-56
2022/11/28 08:03:39;;;;;;;10.47;6.77;;;8.40;99.90;;;;;;5035584;28;20320;-57
2022/11/28 08:06:07;;;;;;;12.77;7.60;;;8.40;99.90;;;;;;5030600;28;20318;-61
2022/11/28 08:08:34;;;;;;;10.17;7.07;;;8.40;99.90;;;;;;5028585;28;20214;-56
2022/11/28 08:11:03;;;;;;;11.93;7.60;;;8.40;99.90;;;;;;5031658;28;20235;-57
2022/11/28 08:13:31;;;;;;;14.37;7.60;;;8.40;99.90;;;;;;5031744;28;20220;-56
2022/11/28 08:16:06;;;;;;;12.80;7.03;;;8.50;99.90;;;;;;5028717;28;20577;-56
2022/11/28 08:18:34;;;;;;;11.23;7.23;;;8.40;99.90;;;;;;5028417;28;20873;-57
2022/11/28 08:21:10;;;;;;;13.50;8.27;;;8.40;99.90;;;;;;5026601;28;20209;-56
2022/11/28 08:23:38;;;;;;;14.03;8.40;;;8.40;99.90;;;;;;5015952;28;20321;-57
2022/11/28 08:26:07;;;;;;;13.30;8.20;;;8.50;99.90;;;;;;5028558;28;20209;-56
2022/11/28 08:28:34;;;;;;;12.80;8.33;;;8.50;99.90;;;;;;5025524;28;20686;-56
2022/11/28 08:31:22;;;;;;;13.97;8.17;;;8.50;99.90;;;;;;5011157;28;20206;-57
2022/11/28 08:33:51;;;;;;;12.93;8.20;;;8.50;99.90;;;;;;5028372;28;20321;-56
2022/11/28 08:36:18;;;;;;;17.30;9.27;;;8.50;99.90;;;;;;5018924;28;20290;-57
2022/11/28 08:38:47;;;;;;;16.27;8.60;;;8.50;99.90;;;;;;5029021;28;20241;-56
2022/11/28 08:41:33;;;;;;;14.57;8.27;;;8.50;99.90;;;;;;5031805;28;20207;-56
2022/11/28 08:44:00;;;;;;;19.27;9.57;;;8.50;99.90;;;;;;5027097;28;20198;-58
2022/11/28 08:46:27;;;;;;;20.57;9.73;;;8.60;99.90;;;;;;5031853;28;20651;-57
2022/11/28 08:48:54;;;;;;;19.90;10.07;;;8.70;99.90;;;;;;5026952;28;20206;-56
2022/11/28 08:51:25;;;;;;;22.30;10.83;;;8.70;99.90;;;;;;5026501;28;20536;-56
2022/11/28 08:53:52;;;;;;;17.20;10.20;;;8.60;99.90;;;;;;5028805;28;20332;-56
2022/11/28 08:56:25;;;;;;;19.57;10.40;;;8.60;99.90;;;;;;5028697;28;20297;-56
2022/11/28 08:58:51;;;;;;;25.40;11.93;;;8.70;99.90;;;;;;5025473;28;20213;-57
2022/11/28 09:01:25;;;;;;;24.53;12.23;;;8.70;99.90;;;;;;5029121;28;20206;-57
2022/11/28 09:03:53;;;;;;;23.60;12.37;;;8.70;99.90;;;;;;5028313;28;20659;-57
2022/11/28 09:06:22;;;;;;;21.93;11.93;;;8.80;99.90;;;;;;5027775;28;20332;-57
2022/11/28 09:08:50;;;;;;;27.27;12.27;;;8.80;99.90;;;;;;5028488;28;20218;-56
2022/11/28 09:11:19;;;;;;;23.70;11.33;;;8.70;99.90;;;;;;5025462;28;20232;-57
2022/11/28 09:13:46;;;;;;;22.70;13.10;;;8.70;99.90;;;;;;5031274;28;20200;-57
2022/11/28 09:16:14;;;;;;;23.43;12.10;;;8.80;99.90;;;;;;5028779;28;20193;-56
2022/11/28 09:18:41;;;;;;;24.90;12.43;;;8.80;99.90;;;;;;5028017;28;20254;-56
2022/11/28 09:21:11;;;;;;;23.33;13.03;;;8.80;99.90;;;;;;5025198;28;20214;-57
2022/11/28 09:23:40;;;;;;;25.40;12.97;;;8.80;99.90;;;;;;5028708;28;20649;-54
2022/11/28 09:26:18;;;;;;;23.53;13.23;;;8.90;99.90;;;;;;5027882;28;20249;-55
2022/11/28 09:28:45;;;;;;;23.87;13.20;;;8.90;99.90;;;;;;5026412;28;20228;-55
2022/11/28 09:31:14;;;;;;;23.00;13.10;;;8.90;99.90;;;;;;5023981;28;20241;-55
2022/11/28 09:33:42;;;;;;;21.37;11.50;;;8.90;99.90;;;;;;5023990;28;20262;-55
2022/11/28 09:36:15;;;;;;;25.17;12.73;;;8.80;99.90;;;;;;5020853;28;20325;-56
2022/11/28 09:38:41;;;;;;;24.33;12.70;;;8.90;99.90;;;;;;5019053;28;20217;-56
2022/11/28 09:41:26;;;;;;;22.30;12.93;;;8.90;99.90;;;;;;5031334;28;20322;-55
2022/11/28 09:43:56;;;;;;;25.67;12.93;;;9.00;99.90;;;;;;5029655;28;20212;-56
2022/11/28 09:46:33;;;;;;;23.73;12.40;;;8.90;99.90;;;;;;5032218;28;20733;-56
2022/11/28 09:49:09;;;;;;;26.87;14.20;;;8.90;99.90;;;;;;5030623;28;20199;-55
2022/11/28 09:51:55;;;;;;;20.80;12.30;;;9.00;99.90;;;;;;5036293;28;20208;-56
2022/11/28 09:54:27;;;;;;;20.70;12.20;;;9.00;99.90;;;;;;5035267;28;20206;-56
2022/11/28 09:56:55;;;;;;;20.73;11.63;;;9.00;99.90;;;;;;5038043;28;20550;-56
2022/11/28 09:59:25;;;;;;;22.40;11.63;;;9.00;99.90;;;;;;5036505;28;20213;-56
2022/11/28 10:02:03;;;;;;;24.07;12.70;;;9.10;99.90;;;;;;5031935;28;20204;-55
2022/11/28 10:04:53;;;;;;;21.33;11.10;;;9.10;99.90;;;;;;5028070;28;20209;-55
2022/11/28 10:07:38;;;;;;;19.80;10.70;;;9.10;99.90;;;;;;5032630;28;20211;-56
2022/11/28 10:10:36;;;;;;;18.37;10.83;;;9.00;99.90;;;;;;5032686;28;20683;-56
2022/11/28 10:13:20;;;;;;;21.47;11.53;;;9.00;99.90;;;;;;5033853;28;20929;-56
2022/11/28 10:15:56;;;;;;;18.90;11.37;;;9.10;99.90;;;;;;5033877;28;20196;-55
2022/11/28 10:18:33;;;;;;;19.97;11.13;;;9.20;99.90;;;;;;5033425;28;20254;-56
2022/11/28 10:21:03;;;;;;;17.03;11.00;;;9.20;99.90;;;;;;5027176;28;20203;-56
2022/11/28 10:23:43;;;;;;;19.13;11.40;;;9.20;99.90;;;;;;5030996;28;21036;-55
2022/11/28 10:26:40;;;;;;;19.60;11.40;;;9.20;99.90;;;;;;5031687;28;20217;-56
2022/11/28 10:29:42;;;;;;;21.33;11.93;;;9.20;99.90;;;;;;5028131;28;20214;-56
2022/11/28 10:32:14;;;;;;;21.03;11.73;;;9.20;99.90;;;;;;5030212;28;20230;-55
2022/11/28 10:34:52;;;;;;;22.43;11.70;;;9.30;99.90;;;;;;5033675;28;20249;-56
2022/11/28 10:37:24;;;;;;;20.17;11.80;;;9.30;99.90;;;;;;5028535;28;20224;-57
2022/11/28 10:39:51;;;;;;;24.17;12.47;;;9.30;99.90;;;;;;5029659;28;20256;-56
2022/11/28 10:42:45;;;;;;;24.13;12.67;;;9.40;99.90;;;;;;5012733;28;20656;-56
2022/11/28 10:45:18;;;;;;;22.60;13.37;;;9.50;99.90;;;;;;5031439;28;20617;-56
2022/11/28 10:48:05;;;;;;;21.77;13.23;;;9.50;99.90;;;;;;5025944;28;20203;-56
2022/11/28 10:51:08;;;;;;;23.43;13.10;;;9.40;99.90;;;;;;5028556;28;20228;-56
2022/11/28 10:53:47;;;;;;;22.40;13.27;;;9.40;99.90;;;;;;5029592;28;20204;-57
2022/11/28 10:56:40;;;;;;;23.50;13.20;;;9.50;99.90;;;;;;5030845;28;20238;-56
2022/11/28 10:59:09;;;;;;;25.20;13.93;;;9.40;99.90;;;;;;5029981;28;20579;-56
2022/11/28 11:01:38;;;;;;;26.17;13.70;;;9.40;99.90;;;;;;5033887;28;20603;-56
2022/11/28 11:04:15;;;;;;;29.03;14.40;;;9.40;99.90;;;;;;5027254;28;20600;-57
2022/11/28 11:06:42;;;;;;;26.87;14.47;;;9.50;99.90;;;;;;5028333;28;20298;-56
2022/11/28 11:09:29;;;;;;;26.33;14.07;;;9.50;99.90;;;;;;5030055;28;20206;-56
2022/11/28 11:11:59;;;;;;;27.83;15.07;;;9.40;99.90;;;;;;5024225;28;20324;-59
2022/11/28 11:14:36;;;;;;;29.50;15.87;;;9.50;99.90;;;;;;5031731;28;20208;-57
2022/11/28 11:17:03;;;;;;;27.17;14.73;;;9.50;99.90;;;;;;5011562;28;20218;-59
2022/11/28 11:19:37;;;;;;;29.30;15.43;;;9.60;99.90;;;;;;5027897;28;20220;-57
2022/11/28 11:22:21;;;;;;;33.17;15.93;;;9.60;99.90;;;;;;5029484;28;20219;-56
2022/11/28 11:25:14;;;;;;;31.80;17.50;;;9.60;99.90;;;;;;5031732;28;20188;-56
2022/11/28 11:28:24;;;;;;;31.70;16.47;;;9.60;99.90;;;;;;5030281;28;20208;-57
2022/11/28 11:31:01;;;;;;;30.17;15.80;;;9.60;99.90;;;;;;5031852;28;20200;-57
2022/11/28 11:33:35;;;;;;;29.10;16.30;;;9.60;99.90;;;;;;5029947;28;20245;-57
2022/11/28 11:36:04;;;;;;;30.20;16.33;;;9.50;99.90;;;;;;5029385;28;20196;-59
2022/11/28 11:38:35;;;;;;;31.20;16.83;;;9.60;99.90;;;;;;5030304;28;20212;-57
2022/11/28 11:41:19;;;;;;;29.90;17.80;;;9.60;99.90;;;;;;5033639;28;20231;-57
2022/11/28 11:43:46;;;;;;;39.17;17.83;;;9.50;99.90;;;;;;5034502;28;20243;-55
2022/11/28 11:46:15;;;;;;;35.00;16.27;;;9.60;99.90;;;;;;5030112;28;21049;-55
2022/11/28 11:48:44;;;;;;;36.63;17.90;;;9.70;99.90;;;;;;5032646;28;20266;-56
2022/11/28 11:51:26;;;;;;;36.93;18.17;;;9.60;99.90;;;;;;5030663;28;20294;-60
2022/11/28 11:54:15;;;;;;;34.53;17.73;;;9.80;99.90;;;;;;5033189;28;20253;-56
2022/11/28 11:56:46;;;;;;;41.73;18.77;;;9.80;99.90;;;;;;5031143;28;20211;-55
2022/11/28 11:59:37;;;;;;;36.87;18.43;;;9.80;99.90;;;;;;5029524;28;20246;-55
2022/11/28 12:02:22;;;;;;;37.60;19.67;;;9.70;99.90;;;;;;5028451;28;20202;-56
2022/11/28 12:05:13;;;;;;;38.00;18.40;;;9.70;99.90;;;;;;5030203;28;20318;-56
2022/11/28 12:08:04;;;;;;;37.70;19.20;;;9.70;99.90;;;;;;5031211;28;20282;-58
2022/11/28 12:10:39;;;;;;;50.73;19.83;;;9.70;99.90;;;;;;5029196;28;20234;-56
2022/11/28 12:13:19;;;;;;;38.27;19.20;;;9.70;99.90;;;;;;5032297;28;20294;-56
2022/11/28 12:16:04;;;;;;;45.27;20.10;;;9.70;99.90;;;;;;5032346;28;20199;-56
2022/11/28 12:18:49;;;;;;;45.13;20.33;;;9.70;99.90;;;;;;5029015;28;20236;-56
2022/11/28 12:21:25;;;;;;;45.90;20.27;;;9.80;99.90;;;;;;5027729;28;20609;-56
2022/11/28 12:24:07;;;;;;;46.53;21.07;;;9.80;99.90;;;;;;5047000;28;20286;-56
2022/11/28 12:27:12;;;;;;;42.03;21.67;;;9.90;99.90;;;;;;5031245;28;20876;-57
2022/11/28 12:30:13;;;;;;;50.97;22.60;;;9.90;99.90;;;;;;5029966;28;20209;-56
2022/11/28 12:33:35;;;;;;;45.40;21.50;;;9.80;99.90;;;;;;5031941;28;20299;-56
2022/11/28 12:36:23;;;;;;;47.47;22.17;;;9.90;99.90;;;;;;4978234;28;20234;-56
2022/11/28 12:38:59;;;;;;;51.23;22.17;;;10.00;99.90;;;;;;4982321;28;20319;-56
2022/11/28 12:41:47;;;;;;;52.40;23.07;;;9.90;99.90;;;;;;4979942;28;20203;-56
2022/11/28 12:44:26;;;;;;;50.43;21.77;;;9.90;99.90;;;;;;4979443;28;20247;-57
2022/11/28 12:47:10;;;;;;;44.90;22.10;;;9.90;99.90;;;;;;4979920;28;20650;-56
2022/11/28 12:49:54;;;;;;;43.17;21.70;;;9.90;99.90;;;;;;4979708;28;20673;-56
2022/11/28 12:52:34;;;;;;;50.17;21.97;;;10.00;99.90;;;;;;4978316;28;20298;-56
2022/11/28 12:55:15;;;;;;;44.50;21.90;;;10.00;99.90;;;;;;4976957;28;20326;-57
2022/11/28 12:57:53;;;;;;;48.30;22.70;;;10.00;99.90;;;;;;4985424;28;20230;-56
2022/11/28 13:00:24;;;;;;;48.13;23.40;;;10.10;99.90;;;;;;4983139;28;20267;-56
2022/11/28 13:03:20;;;;;;;48.93;23.23;;;10.10;99.90;;;;;;4983420;28;20205;-56
2022/11/28 13:06:11;;;;;;;43.10;23.10;;;10.10;99.90;;;;;;4982808;28;20637;-56
2022/11/28 13:09:09;;;;;;;52.03;23.23;;;10.20;99.90;;;;;;4985164;28;20209;-56
2022/11/28 13:12:00;;;;;;;42.00;22.63;;;10.20;99.90;;;;;;5035199;28;20314;-56
2022/11/28 13:15:04;;;;;;;47.00;23.43;;;10.00;99.90;;;;;;5035827;28;20297;-56
2022/11/28 13:17:47;;;;;;;42.27;22.73;;;10.00;99.90;;;;;;5034574;28;20321;-57
2022/11/28 13:20:24;;;;;;;46.47;23.43;;;10.00;99.90;;;;;;5032601;28;20298;-55
2022/11/28 13:23:17;;;;;;;43.53;22.77;;;10.00;99.90;;;;;;5023733;28;20204;-55
2022/11/28 13:26:03;;;;;;;49.30;23.40;;;10.10;99.90;;;;;;5024659;28;20320;-56